Time;durP1;ratioP1;P1;durP2;ratioP2;P2;SDS_P1;SDS_P2;PMS_P1;PMS_P2;Temp;Humidity;BMP_temperature;BMP_pressure;BME280_temperature;BME280_humidity;BME280_pressure;Samples;Min_cycle;Max_cycle;Signal;HPM_P1;HPM_P2
2021/12/05 00:24:01;;;;;;;5.25;2.65;;;4.40;99.90;;;;;;5003394;28;20211;-86
2021/12/05 00:26:29;;;;;;;4.25;3.60;;;4.50;99.90;;;;;;4983379;28;20203;-86
2021/12/05 00:29:11;;;;;;;14.50;3.15;;;4.50;99.90;;;;;;4983028;28;20551;-85
2021/12/05 00:39:34;;;;;;;11.90;3.93;;;4.60;99.90;;;;;;5000747;28;20189;-86
2021/12/05 01:04:01;;;;;;;5.00;2.53;;;4.40;99.90;;;;;;4984878;28;20191;-86
2021/12/05 01:16:42;;;;;;;6.80;3.13;;;4.60;99.90;;;;;;4995392;28;20204;-85
2021/12/05 01:19:11;;;;;;;4.88;2.60;;;4.90;99.90;;;;;;4999572;28;20242;-85
2021/12/05 01:21:39;;;;;;;6.45;2.83;;;4.90;99.90;;;;;;4985534;28;20196;-85
2021/12/05 01:29:30;;;;;;;7.07;3.55;;;4.90;99.90;;;;;;4991892;28;20196;-85
2021/12/05 01:32:25;;;;;;;4.40;2.70;;;4.80;99.90;;;;;;4977402;28;20269;-86
2021/12/05 01:37:25;;;;;;;6.28;3.17;;;4.80;99.90;;;;;;4991875;28;20224;-85
2021/12/05 01:40:03;;;;;;;5.07;2.67;;;5.10;99.90;;;;;;4994676;28;20215;-86
2021/12/05 01:50:54;;;;;;;11.90;4.32;;;5.20;99.90;;;;;;4971919;28;20231;-86
2021/12/05 02:01:42;;;;;;;2.92;2.67;;;5.20;99.90;;;;;;4978625;28;20263;-86
2021/12/05 02:32:10;;;;;;;5.47;2.17;;;5.00;99.90;;;;;;4989155;28;20856;-86
2021/12/05 02:44:57;;;;;;;3.53;2.60;;;4.70;99.90;;;;;;4994990;28;20519;-85
2021/12/05 02:47:26;;;;;;;7.68;2.65;;;4.80;99.90;;;;;;4991186;28;20190;-85
2021/12/05 02:49:56;;;;;;;3.55;2.47;;;4.60;99.90;;;;;;4990665;28;20193;-76
2021/12/05 02:52:28;;;;;;;9.48;2.65;;;4.70;99.90;;;;;;4975253;28;20170;-86
2021/12/05 02:54:59;;;;;;;6.00;2.60;;;4.90;99.90;;;;;;4985366;28;20514;-85
2021/12/05 02:57:48;;;;;;;10.60;3.30;;;4.80;99.90;;;;;;4993647;28;20245;-86
2021/12/05 03:00:35;;;;;;;1.90;1.80;;;4.70;99.90;;;;;;4983374;28;20741;-85
2021/12/05 03:03:01;;;;;;;6.63;2.75;;;5.10;99.90;;;;;;5014576;28;20638;-86
2021/12/05 03:05:28;;;;;;;9.07;2.65;;;7.50;99.90;;;;;;5002396;28;20198;-86
2021/12/05 03:08:00;;;;;;;5.75;2.50;;;4.80;99.90;;;;;;5008254;28;20529;-86
2021/12/05 03:10:26;;;;;;;5.32;3.60;;;5.10;99.90;;;;;;4998013;28;20256;-86
2021/12/05 03:12:51;;;;;;;3.15;2.92;;;4.80;99.90;;;;;;4975015;28;20204;-86
2021/12/05 03:15:19;;;;;;;2.20;2.00;;;5.40;99.90;;;;;;4985806;28;20298;-86
2021/12/05 03:17:45;;;;;;;5.32;2.50;;;4.40;99.90;;;;;;5001226;28;20224;-85
2021/12/05 03:20:14;;;;;;;4.80;2.33;;;5.20;99.90;;;;;;5002789;28;20197;-86
2021/12/05 03:22:40;;;;;;;7.82;2.10;;;4.20;99.90;;;;;;4989411;28;20864;-87
2021/12/05 03:25:07;;;;;;;4.60;2.63;;;4.90;99.90;;;;;;4988809;28;20280;-87
2021/12/05 03:27:34;;;;;;;4.70;2.38;;;5.00;99.90;;;;;;4997503;28;20165;-86
2021/12/05 03:30:01;;;;;;;8.02;1.98;;;4.90;99.90;;;;;;4973840;28;20602;-87
2021/12/05 03:32:27;;;;;;;9.23;2.38;;;5.20;99.90;;;;;;4970786;28;20173;-86
2021/12/05 03:34:52;;;;;;;5.53;2.20;;;4.90;99.90;;;;;;4988558;28;20295;-85
2021/12/05 03:37:21;;;;;;;3.07;2.10;;;4.90;99.90;;;;;;4999690;28;20236;-85
2021/12/05 03:39:47;;;;;;;2.85;2.35;;;5.00;99.90;;;;;;4999756;28;20431;-85
2021/12/05 03:42:12;;;;;;;10.13;2.40;;;4.80;99.90;;;;;;4976206;28;20221;-86
2021/12/05 03:44:39;;;;;;;5.53;3.07;;;4.80;99.90;;;;;;4970568;28;20185;-85
2021/12/05 03:47:07;;;;;;;5.18;2.38;;;4.90;99.90;;;;;;4989693;28;20528;-85
2021/12/05 03:49:34;;;;;;;2.25;2.03;;;4.80;99.90;;;;;;4974289;28;20548;-85
2021/12/05 03:52:05;;;;;;;9.00;2.35;;;6.20;99.90;;;;;;4980193;28;20342;-85
2021/12/05 03:54:31;;;;;;;6.93;2.20;;;4.60;99.90;;;;;;4987461;28;20200;-85
2021/12/05 03:56:59;;;;;;;1.63;1.53;;;5.30;99.90;;;;;;4973055;28;20533;-85
2021/12/05 03:59:27;;;;;;;5.65;2.40;;;5.50;99.90;;;;;;4971828;28;20185;-85
2021/12/05 04:01:54;;;;;;;5.43;2.03;;;4.90;99.90;;;;;;4975433;28;20192;-85
2021/12/05 04:04:20;;;;;;;3.60;1.80;;;4.70;99.90;;;;;;4983495;28;20195;-85
2021/12/05 04:06:47;;;;;;;8.18;2.60;;;4.80;99.90;;;;;;4978208;28;20196;-85
2021/12/05 04:09:15;;;;;;;7.95;2.28;;;4.70;99.90;;;;;;4977912;28;20220;-82
2021/12/05 04:11:55;;;;;;;5.63;2.03;;;4.70;99.90;;;;;;4986787;28;20208;-84
2021/12/05 04:14:20;;;;;;;5.38;2.25;;;4.70;99.90;;;;;;4967640;28;20166;-86
2021/12/05 04:16:46;;;;;;;4.00;1.97;;;5.90;99.90;;;;;;4974154;28;20604;-86
2021/12/05 04:19:12;;;;;;;1.50;1.40;;;4.60;99.90;;;;;;4983239;28;20199;-86
2021/12/05 04:21:41;;;;;;;4.07;1.97;;;4.70;99.90;;;;;;4986860;28;20830;-85
2021/12/05 04:24:09;;;;;;;9.98;2.67;;;4.20;99.90;;;;;;5004073;28;20188;-85
2021/12/05 04:26:36;;;;;;;4.68;1.80;;;4.90;99.90;;;;;;4987030;28;20234;-86
2021/12/05 04:29:03;;;;;;;5.47;2.80;;;5.80;99.90;;;;;;4995599;28;20227;-85
2021/12/05 04:31:29;;;;;;;7.07;2.30;;;4.40;99.90;;;;;;4976006;28;20204;-86
2021/12/05 04:33:55;;;;;;;3.80;1.90;;;4.70;99.90;;;;;;5001126;28;20543;-85
2021/12/05 04:36:23;;;;;;;7.40;2.10;;;3.90;99.90;;;;;;4976200;28;20231;-86
2021/12/05 04:38:49;;;;;;;2.58;1.95;;;5.00;99.90;;;;;;4982668;28;20669;-87
2021/12/05 04:41:15;;;;;;;2.03;1.83;;;4.30;99.90;;;;;;4988866;28;20255;-87
2021/12/05 04:43:41;;;;;;;2.83;2.13;;;4.70;99.90;;;;;;4994490;28;20188;-86
2021/12/05 04:46:19;;;;;;;5.63;2.37;;;3.70;99.90;;;;;;4973137;28;20701;-86
2021/12/05 04:48:50;;;;;;;1.88;1.50;;;4.50;99.90;;;;;;4994862;28;20449;-86
2021/12/05 04:53:47;;;;;;;3.53;2.35;;;4.30;99.90;;;;;;4987518;28;20214;-88
2021/12/05 04:56:14;;;;;;;8.50;2.13;;;4.40;99.90;;;;;;4984866;28;20241;-89
2021/12/05 04:58:40;;;;;;;2.17;2.03;;;4.50;99.90;;;;;;4982266;28;20719;-89
2021/12/05 05:01:06;;;;;;;9.23;2.13;;;4.40;99.90;;;;;;5000259;28;20197;-87
2021/12/05 05:03:33;;;;;;;10.18;2.28;;;4.40;99.90;;;;;;4988613;28;20185;-90
2021/12/05 05:06:10;;;;;;;2.38;1.70;;;4.20;99.90;;;;;;4983580;28;20190;-88
2021/12/05 05:08:36;;;;;;;7.10;1.95;;;4.30;99.90;;;;;;4980236;28;20186;-88
2021/12/05 05:11:06;;;;;;;3.13;1.40;;;4.40;99.90;;;;;;4971743;29;20182;-88
2021/12/05 05:13:33;;;;;;;6.45;2.30;;;4.40;99.90;;;;;;4987591;28;20435;-89
2021/12/05 05:16:01;;;;;;;1.50;1.50;;;4.40;99.90;;;;;;4992146;28;20256;-87
2021/12/05 05:18:34;;;;;;;4.30;2.25;;;4.30;99.90;;;;;;4990748;28;20216;-89
2021/12/05 05:21:27;;;;;;;10.25;1.60;;;4.40;99.90;;;;;;4970342;29;20194;-88
2021/12/05 05:40:44;;;;;;;3.03;1.35;;;4.50;99.90;;;;;;4979917;28;20200;-88
2021/12/05 05:48:34;;;;;;;5.82;1.88;;;4.50;99.90;;;;;;4967464;28;20209;-87
2021/12/05 05:51:01;;;;;;;4.75;2.05;;;4.40;99.90;;;;;;4959605;28;20186;-87
2021/12/05 05:53:27;;;;;;;2.05;1.85;;;5.20;99.90;;;;;;4954528;28;20320;-87
2021/12/05 05:55:55;;;;;;;4.30;1.77;;;4.60;99.90;;;;;;4960230;28;20723;-87
2021/12/05 05:58:26;;;;;;;3.85;1.58;;;5.00;99.90;;;;;;4961581;28;20183;-89
2021/12/05 06:03:26;;;;;;;1.67;1.67;;;4.60;99.90;;;;;;4971486;28;20189;-89
2021/12/05 06:06:00;;;;;;;6.60;1.80;;;4.40;99.90;;;;;;4962158;29;20195;-88
2021/12/05 06:08:28;;;;;;;1.95;1.50;;;4.80;99.90;;;;;;4954654;28;20193;-89
2021/12/05 06:11:00;;;;;;;4.38;2.22;;;4.40;99.90;;;;;;4972020;29;20676;-88
2021/12/05 06:13:30;;;;;;;2.55;1.70;;;4.50;99.90;;;;;;4958741;29;20198;-88
2021/12/05 06:15:57;;;;;;;4.80;2.65;;;4.70;99.90;;;;;;4965129;29;20206;-87
2021/12/05 06:18:23;;;;;;;2.42;2.00;;;4.40;99.90;;;;;;4967693;28;20669;-88
2021/12/05 06:20:50;;;;;;;2.87;1.60;;;3.80;99.90;;;;;;4967369;29;20182;-89
2021/12/05 06:23:16;;;;;;;7.00;1.83;;;4.60;99.90;;;;;;4954807;29;20183;-88
2021/12/05 06:25:44;;;;;;;7.93;2.47;;;4.60;99.90;;;;;;4943452;29;20170;-89
2021/12/05 06:28:13;;;;;;;2.75;1.73;;;4.50;99.90;;;;;;4960906;29;20425;-88
2021/12/05 06:41:47;;;;;;;1.80;1.70;;;5.70;99.90;;;;;;4966221;29;20179;-89
2021/12/05 06:46:57;;;;;;;3.90;1.55;;;5.10;99.90;;;;;;4953169;29;20166;-89
2021/12/05 06:49:23;;;;;;;6.30;1.97;;;5.20;99.90;;;;;;4971827;29;20606;-88
2021/12/05 06:51:48;;;;;;;13.37;1.57;;;4.80;99.90;;;;;;4980510;28;20230;-87
2021/12/05 06:54:22;;;;;;;1.47;1.37;;;4.70;99.90;;;;;;4970474;28;20206;-88
2021/12/05 06:56:48;;;;;;;5.75;1.65;;;5.00;99.90;;;;;;4989479;28;20209;-88
2021/12/05 06:59:14;;;;;;;2.30;1.40;;;5.30;99.90;;;;;;4966992;28;20423;-89
2021/12/05 07:01:40;;;;;;;2.23;1.27;;;4.90;99.90;;;;;;4979219;28;20460;-90
2021/12/05 07:04:15;;;;;;;1.20;1.20;;;6.50;99.90;;;;;;4971159;28;20213;-89
2021/12/05 07:06:42;;;;;;;1.73;1.63;;;4.80;99.90;;;;;;4964699;29;20225;-91
2021/12/05 07:09:11;;;;;;;3.00;1.40;;;4.70;99.90;;;;;;4970397;28;20183;-90
2021/12/05 07:11:53;;;;;;;6.65;1.67;;;4.90;99.90;;;;;;4959424;29;20199;-82
2021/12/05 07:14:34;;;;;;;1.30;1.20;;;5.00;99.90;;;;;;4951976;29;20176;-89
2021/12/05 07:20:10;;;;;;;2.67;1.80;;;6.10;99.90;;;;;;4950490;29;20198;-91
2021/12/05 07:22:52;;;;;;;1.75;1.35;;;4.80;99.90;;;;;;4969787;28;20185;-89
2021/12/05 07:42:24;;;;;;;3.80;1.50;;;4.20;99.90;;;;;;4986010;28;20257;-88
2021/12/05 07:44:56;;;;;;;0.93;0.93;;;4.50;99.90;;;;;;4973999;29;20249;-88
2021/12/05 07:47:29;;;;;;;2.60;1.50;;;4.70;99.90;;;;;;4953640;29;20188;-89
2021/12/05 07:49:57;;;;;;;2.95;1.17;;;4.80;99.90;;;;;;4958446;28;20183;-91
2021/12/05 07:52:28;;;;;;;7.55;1.63;;;4.90;99.90;;;;;;4949715;28;20580;-86
2021/12/05 07:55:07;;;;;;;1.85;1.35;;;4.70;99.90;;;;;;4953816;28;20222;-88
2021/12/05 07:57:45;;;;;;;1.73;1.15;;;4.70;99.90;;;;;;4966467;29;20170;-88
2021/12/05 08:00:21;;;;;;;3.60;1.40;;;4.80;99.90;;;;;;4975438;28;20528;-89
2021/12/05 08:16:30;;;;;;;1.90;1.65;;;5.30;99.90;;;;;;4953505;28;20225;-88
2021/12/05 08:18:57;;;;;;;3.25;1.85;;;6.10;99.90;;;;;;4946200;28;20198;-88
2021/12/05 08:21:22;;;;;;;3.35;1.60;;;5.40;99.90;;;;;;4954732;28;20198;-89
2021/12/05 08:23:50;;;;;;;5.00;2.13;;;5.40;99.90;;;;;;4956247;29;20249;-88
2021/12/05 08:26:21;;;;;;;4.80;2.13;;;5.40;99.90;;;;;;4948859;28;20201;-90
2021/12/05 08:34:28;;;;;;;4.68;2.63;;;5.40;99.90;;;;;;4947655;28;20213;-87
2021/12/05 09:26:05;;;;;;;4.15;1.42;;;5.90;99.90;;;;;;4932454;29;20473;-86
2021/12/05 09:29:05;;;;;;;1.38;1.38;;;;;;;;;;4949785;28;20195;-86
2021/12/05 09:40:10;;;;;;;1.33;1.33;;;6.10;99.90;;;;;;4958507;29;20678;-89
2021/12/05 09:51:52;;;;;;;2.05;1.95;;;5.60;99.90;;;;;;4946038;28;20306;-85
2021/12/05 10:10:06;;;;;;;7.47;1.73;;;5.30;99.90;;;;;;4948104;28;20197;-86
2021/12/05 10:13:19;;;;;;;3.13;2.30;;;5.50;99.90;;;;;;4949151;29;20190;-87
2021/12/05 10:36:01;;;;;;;3.05;2.85;;;5.50;99.90;;;;;;4963057;28;20584;-88
2021/12/05 10:38:51;;;;;;;1.80;1.70;;;5.30;99.90;;;;;;4952773;28;20513;-90
2021/12/05 10:44:21;;;;;;;1.48;1.38;;;5.50;99.90;;;;;;4968982;28;20491;-92
2021/12/05 10:47:22;;;;;;;1.40;1.35;;;8.70;99.90;;;;;;4959140;28;20565;-91
2021/12/05 10:50:16;;;;;;;2.58;2.08;;;6.80;99.90;;;;;;4953580;28;20212;-92
2021/12/05 10:53:36;;;;;;;2.05;1.52;;;6.90;99.90;;;;;;4975332;28;20198;-89
2021/12/05 10:56:21;;;;;;;2.38;1.70;;;3.80;99.90;;;;;;4989263;28;20217;-91
2021/12/05 10:59:24;;;;;;;1.63;1.63;;;6.20;99.90;;;;;;4964939;28;20301;-90
2021/12/05 11:01:55;;;;;;;2.15;1.65;;;5.90;99.90;;;;;;5000281;28;20208;-91
2021/12/05 11:04:32;;;;;;;3.40;1.40;;;5.90;99.90;;;;;;4960588;28;20265;-90
2021/12/05 11:07:16;;;;;;;1.20;1.20;;;6.30;99.90;;;;;;4955751;28;20198;-93
2021/12/05 11:09:57;;;;;;;1.63;1.63;;;5.90;99.90;;;;;;4977654;28;20188;-93
2021/12/05 11:12:27;;;;;;;1.52;1.48;;;5.90;99.90;;;;;;4969063;28;20202;-92
2021/12/05 11:15:18;;;;;;;;;;;;;;;;;;;;;
2021/12/05 11:18:02;;;;;;;1.13;1.13;;;6.70;99.90;;;;;;5057007;23;20228;-93
2021/12/05 11:20:33;;;;;;;1.25;1.25;;;6.70;99.90;;;;;;5013107;28;20188;-88
2021/12/05 11:23:00;;;;;;;1.27;1.17;;;6.20;99.90;;;;;;5015939;28;20240;-91
2021/12/05 11:25:30;;;;;;;1.40;1.40;;;6.10;99.90;;;;;;5014623;28;20191;-89
2021/12/05 11:28:02;;;;;;;1.73;1.63;;;6.20;99.90;;;;;;5014279;28;20196;-91
2021/12/05 11:30:32;;;;;;;2.65;1.50;;;6.20;99.90;;;;;;5013665;28;20224;-92
2021/12/05 11:33:07;;;;;;;4.03;1.70;;;6.10;99.90;;;;;;5016360;28;20183;-94
2021/12/05 11:35:45;;;;;;;1.65;1.65;;;6.60;99.90;;;;;;5014657;28;20223;-92
2021/12/05 11:38:17;;;;;;;1.38;1.35;;;6.10;99.90;;;;;;5012549;28;20271;-92
2021/12/05 11:41:02;;;;;;;2.72;1.65;;;6.20;99.90;;;;;;5010027;28;20216;-92
2021/12/05 11:43:35;;;;;;;2.35;1.65;;;7.90;99.90;;;;;;5004822;28;20189;-93
2021/12/05 11:46:11;;;;;;;1.35;1.35;;;6.10;99.90;;;;;;5024869;28;20226;-94
2021/12/05 11:48:48;;;;;;;1.80;1.80;;;5.60;99.90;;;;;;5006824;28;20173;-92
2021/12/05 11:51:32;;;;;;;1.88;1.77;;;8.30;99.90;;;;;;5009578;28;20184;-93
2021/12/05 11:54:05;;;;;;;1.90;1.80;;;7.60;99.90;;;;;;5004398;28;20198;-93
2021/12/05 11:56:30;;;;;;;2.40;2.30;;;6.80;99.90;;;;;;5005348;28;20204;-93
2021/12/05 11:59:17;;;;;;;1.70;1.60;;;6.40;99.90;;;;;;5010161;28;20276;-92
2021/12/05 12:01:47;;;;;;;1.75;1.65;;;7.60;99.90;;;;;;5020563;28;20560;-95
2021/12/05 12:04:16;;;;;;;2.15;2.00;;;6.40;99.90;;;;;;5011721;28;20184;-93
2021/12/05 12:06:47;;;;;;;2.60;1.70;;;6.50;99.90;;;;;;5026033;28;20197;-93
2021/12/05 12:09:13;;;;;;;1.42;1.42;;;7.80;99.90;;;;;;5003489;28;20223;-92
2021/12/05 12:11:43;;;;;;;1.95;1.85;;;6.40;99.90;;;;;;5014950;28;20180;-94
2021/12/05 12:14:11;;;;;;;1.67;1.58;;;6.40;99.90;;;;;;5012034;28;20195;-90
2021/12/05 12:16:41;;;;;;;2.13;2.00;;;6.60;99.90;;;;;;5010323;28;20228;-92
2021/12/05 12:19:07;;;;;;;1.40;1.40;;;6.60;99.90;;;;;;5005120;28;20312;-89
2021/12/05 12:21:39;;;;;;;1.83;1.73;;;6.60;99.90;;;;;;5023521;28;20169;-90
2021/12/05 12:24:06;;;;;;;1.88;1.60;;;6.60;99.90;;;;;;5002875;28;20665;-90
2021/12/05 12:26:32;;;;;;;1.58;1.58;;;6.60;99.90;;;;;;5005613;28;20188;-89
2021/12/05 12:28:58;;;;;;;1.57;1.47;;;6.80;99.90;;;;;;5014674;28;20185;-91
2021/12/05 12:31:31;;;;;;;1.42;1.42;;;6.70;99.90;;;;;;4993528;28;20208;-90
2021/12/05 12:34:02;;;;;;;1.13;1.13;;;7.00;99.90;;;;;;4990750;28;20277;-89
2021/12/05 12:36:40;;;;;;;2.67;1.58;;;8.70;99.90;;;;;;5009791;28;20217;-90
2021/12/05 12:42:30;;;;;;;1.15;1.15;;;6.80;99.90;;;;;;4985029;28;20238;-91
2021/12/05 12:45:12;;;;;;;1.40;1.02;;;6.80;99.90;;;;;;5009419;28;20172;-92
2021/12/05 12:47:59;;;;;;;1.20;1.20;;;6.90;99.90;;;;;;4990758;28;20180;-90
2021/12/05 12:50:50;;;;;;;2.33;1.55;;;7.00;99.90;;;;;;4992720;28;20399;-91
2021/12/05 12:53:21;;;;;;;1.23;1.10;;;7.00;99.90;;;;;;4637953;28;10000602;-90
2021/12/05 12:56:00;;;;;;;1.85;1.75;;;8.80;99.90;;;;;;4969513;28;20208;-90
2021/12/05 12:58:42;;;;;;;1.52;1.42;;;7.30;99.90;;;;;;4981797;28;20203;-85
2021/12/05 13:01:19;;;;;;;1.58;1.58;;;6.70;99.90;;;;;;5005009;28;20670;-86
2021/12/05 13:04:58;;;;;;;2.05;1.52;;;6.70;99.90;;;;;;4982880;28;20238;-86
2021/12/05 13:12:53;;;;;;;1.30;1.30;;;6.60;99.90;;;;;;5004804;28;20230;-86
2021/12/05 13:15:37;;;;;;;1.60;1.48;;;6.30;99.90;;;;;;5011569;28;20232;-88
2021/12/05 13:18:13;;;;;;;1.70;1.60;;;6.80;99.90;;;;;;4999486;28;20997;-87
2021/12/05 13:20:41;;;;;;;1.50;1.50;;;6.70;99.90;;;;;;5007025;28;20184;-87
2021/12/05 13:23:40;;;;;;;1.60;1.60;;;6.60;99.90;;;;;;4998687;28;20179;-87
2021/12/05 13:26:32;;;;;;;1.70;1.60;;;6.80;99.90;;;;;;4997792;28;20191;-87
2021/12/05 13:29:25;;;;;;;3.70;1.67;;;6.90;99.90;;;;;;4986225;28;20561;-87
2021/12/05 13:32:05;;;;;;;1.63;1.52;;;6.80;99.90;;;;;;5002145;28;20187;-87
2021/12/05 13:34:30;;;;;;;2.33;1.85;;;7.00;99.90;;;;;;5002778;28;20195;-87
2021/12/05 13:37:05;;;;;;;1.47;1.47;;;6.60;99.90;;;;;;5014165;28;20633;-87
2021/12/05 13:39:44;;;;;;;1.23;1.23;;;6.90;99.90;;;;;;5005861;28;20219;-87
2021/12/05 13:42:17;;;;;;;2.15;1.40;;;7.00;99.90;;;;;;4995951;28;20199;-87
2021/12/05 13:45:04;;;;;;;1.45;1.35;;;7.10;99.90;;;;;;5007884;28;20200;-87
2021/12/05 13:51:04;;;;;;;2.22;2.05;;;7.50;99.90;;;;;;5008063;28;20285;-87
2021/12/05 13:53:49;;;;;;;2.50;2.30;;;6.80;99.90;;;;;;5014569;28;20279;-91
2021/12/05 13:56:24;;;;;;;1.55;1.55;;;6.90;99.90;;;;;;4987810;28;20266;-90
2021/12/05 13:59:11;;;;;;;2.00;2.00;;;6.80;99.90;;;;;;4980855;28;20253;-90
2021/12/05 14:01:49;;;;;;;1.75;1.65;;;7.00;99.90;;;;;;4993612;28;20176;-89
2021/12/05 14:04:28;;;;;;;1.80;1.70;;;6.80;99.90;;;;;;4991768;28;20270;-89
2021/12/05 14:07:02;;;;;;;3.05;1.50;;;6.70;99.90;;;;;;4983298;28;20223;-89
2021/12/05 14:09:30;;;;;;;1.65;1.60;;;7.40;99.90;;;;;;4994027;28;20185;-88
2021/12/05 14:12:11;;;;;;;2.20;1.70;;;6.90;99.90;;;;;;5017539;28;20192;-89
2021/12/05 14:14:45;;;;;;;5.25;3.20;;;8.80;99.90;;;;;;4993783;28;20183;-89
2021/12/05 14:20:46;;;;;;;2.08;2.00;;;6.90;99.90;;;;;;4912136;28;20506;-91
2021/12/05 14:23:20;;;;;;;1.95;1.95;;;6.90;99.90;;;;;;4992206;28;20524;-90
2021/12/05 14:25:47;;;;;;;2.03;1.92;;;7.00;99.90;;;;;;4973759;28;20189;-90
2021/12/05 14:28:13;;;;;;;2.60;1.75;;;7.10;99.90;;;;;;4992731;28;20555;-90
2021/12/05 14:30:50;;;;;;;2.00;1.73;;;6.90;99.90;;;;;;4989559;28;20184;-88
2021/12/05 14:33:19;;;;;;;2.08;2.08;;;6.90;99.90;;;;;;4993581;28;20239;-89
2021/12/05 14:35:45;;;;;;;4.10;2.20;;;7.10;99.90;;;;;;4989567;28;20217;-89
2021/12/05 14:38:15;;;;;;;2.67;2.57;;;7.00;99.90;;;;;;4992420;28;20540;-88
2021/12/05 14:41:16;;;;;;;2.13;1.92;;;7.10;99.90;;;;;;4975359;28;20174;-90
2021/12/05 14:44:03;;;;;;;5.53;2.45;;;6.90;99.90;;;;;;4986810;28;20200;-90
2021/12/05 14:46:29;;;;;;;1.85;1.85;;;6.90;99.90;;;;;;4978736;28;20842;-90
2021/12/05 14:49:04;;;;;;;2.33;2.23;;;6.90;99.90;;;;;;4987633;28;20197;-90
2021/12/05 14:51:37;;;;;;;1.90;1.90;;;6.90;99.90;;;;;;4996163;28;20422;-90
2021/12/05 14:54:05;;;;;;;2.72;2.63;;;6.70;99.90;;;;;;4981467;28;20233;-88
2021/12/05 14:56:40;;;;;;;2.70;2.60;;;6.80;99.90;;;;;;4988835;28;20212;-87
2021/12/05 14:59:16;;;;;;;2.15;2.15;;;6.90;99.90;;;;;;4994182;28;20616;-87
2021/12/05 15:01:51;;;;;;;2.08;2.08;;;6.80;99.90;;;;;;5008721;28;20217;-90
2021/12/05 15:04:56;;;;;;;2.30;2.30;;;8.10;99.90;;;;;;4986827;28;20561;-88
2021/12/05 15:07:32;;;;;;;2.38;2.28;;;8.30;99.90;;;;;;4973262;28;20173;-87
2021/12/05 15:09:58;;;;;;;2.88;2.10;;;6.80;99.90;;;;;;4997518;28;20192;-87
2021/12/05 15:12:30;;;;;;;3.05;2.95;;;6.80;99.90;;;;;;5003924;28;20208;-87
2021/12/05 15:15:29;;;;;;;2.10;2.10;;;6.70;99.90;;;;;;4990886;28;20208;-89
2021/12/05 15:18:50;;;;;;;3.03;2.85;;;6.20;99.90;;;;;;4992590;28;20219;-89
2021/12/05 15:21:40;;;;;;;2.63;2.53;;;7.60;99.90;;;;;;4935686;28;20192;-89
2021/12/05 15:24:48;;;;;;;2.63;2.45;;;7.50;99.90;;;;;;4986603;28;20716;-89
2021/12/05 15:27:24;;;;;;;3.45;2.70;;;7.40;99.90;;;;;;4925594;28;20200;-89
2021/12/05 15:29:58;;;;;;;3.47;3.25;;;6.50;99.90;;;;;;4982686;28;20182;-89
2021/12/05 15:32:34;;;;;;;3.00;2.85;;;6.60;99.90;;;;;;4991766;28;20223;-89
2021/12/05 15:35:04;;;;;;;2.92;2.72;;;6.60;99.90;;;;;;4978144;28;20262;-88
2021/12/05 15:37:58;;;;;;;2.45;2.33;;;6.50;99.90;;;;;;5004594;28;20201;-90
2021/12/05 15:41:15;;;;;;;;;;;;;;;;;;;;;
2021/12/05 15:46:55;;;;;;;2.60;2.50;;;6.60;99.90;;;;;;4991037;23;20237;-88
2021/12/05 15:50:03;;;;;;;2.25;2.25;;;7.00;99.90;;;;;;4957789;28;20557;-87
2021/12/05 15:55:35;;;;;;;4.20;4.00;;;6.60;99.90;;;;;;4727056;23;10002366;-89
2021/12/05 15:58:18;;;;;;;3.00;3.00;;;6.40;99.90;;;;;;4959212;28;21024;-87
2021/12/05 16:00:51;;;;;;;4.03;3.78;;;8.00;99.90;;;;;;4942050;28;20584;-87
2021/12/05 16:03:26;;;;;;;3.60;3.50;;;6.50;99.90;;;;;;4964466;28;20537;-92
2021/12/05 16:08:50;;;;;;;4.90;4.45;;;6.40;99.90;;;;;;4986725;23;20257;-87
2021/12/05 16:11:21;;;;;;;7.30;4.60;;;6.40;99.90;;;;;;4977908;28;20246;-87
2021/12/05 16:13:52;;;;;;;3.65;3.40;;;6.40;99.90;;;;;;4990611;28;20276;-88
2021/12/05 16:16:28;;;;;;;3.70;3.60;;;5.60;99.90;;;;;;4979191;28;20213;-89
2021/12/05 16:19:00;;;;;;;3.25;3.15;;;6.30;99.90;;;;;;4972147;28;20197;-90
2021/12/05 16:21:43;;;;;;;4.70;4.22;;;6.40;99.90;;;;;;4993452;28;20228;-85
2021/12/05 16:24:26;;;;;;;5.40;3.70;;;6.30;99.90;;;;;;5117740;23;20277;-89
2021/12/05 16:27:39;;;;;;;;;;;;;;;;;;;;;
2021/12/05 16:30:46;;;;;;;;;;;;;;;;;;;;;
2021/12/05 16:33:31;;;;;;;4.88;4.57;;;6.40;99.90;;;;;;4999861;28;20253;-91
2021/12/05 16:42:23;;;;;;;5.68;5.38;;;6.40;99.90;;;;;;4988425;28;20181;-88
2021/12/05 16:45:00;;;;;;;5.35;4.93;;;6.30;99.90;;;;;;4974848;28;20188;-88
2021/12/05 16:47:31;;;;;;;8.68;5.65;;;7.50;99.90;;;;;;4971974;28;20241;-84
2021/12/05 16:50:00;;;;;;;5.78;5.30;;;6.80;99.90;;;;;;4981147;28;20231;-88
2021/12/05 16:52:36;;;;;;;9.38;6.78;;;6.30;99.90;;;;;;5055729;23;20343;-88
2021/12/05 16:55:21;;;;;;;8.00;7.28;;;6.70;99.90;;;;;;4949218;28;20648;-87
2021/12/05 16:57:58;;;;;;;9.70;8.80;;;6.60;99.90;;;;;;4985733;28;20212;-86
2021/12/05 17:00:28;;;;;;;8.07;7.47;;;7.00;99.90;;;;;;4982776;28;20460;-85
2021/12/05 17:02:59;;;;;;;8.75;8.15;;;6.30;99.90;;;;;;4987765;23;20240;-88
2021/12/05 17:08:23;;;;;;;8.23;7.28;;;6.40;99.90;;;;;;5010454;28;20221;-85
2021/12/05 17:10:54;;;;;;;6.55;6.18;;;5.70;99.90;;;;;;4993347;28;20179;-86
2021/12/05 17:13:39;;;;;;;13.57;7.05;;;6.50;99.90;;;;;;4975372;28;20204;-85
2021/12/05 17:16:32;;;;;;;6.60;6.10;;;6.70;99.90;;;;;;4993733;28;20217;-84
2021/12/05 17:19:06;;;;;;;7.30;6.70;;;5.60;99.90;;;;;;5008511;28;20182;-85
2021/12/05 17:21:40;;;;;;;7.07;6.57;;;6.30;99.90;;;;;;4978082;28;20692;-86
2021/12/05 17:24:12;;;;;;;6.35;6.00;;;6.60;99.90;;;;;;4989129;28;20696;-86
2021/12/05 17:26:44;;;;;;;8.65;8.05;;;6.50;99.90;;;;;;5004379;28;20190;-88
2021/12/05 17:29:19;;;;;;;10.55;9.40;;;6.30;99.90;;;;;;5005942;28;20179;-89
2021/12/05 17:32:07;;;;;;;6.60;6.20;;;5.20;99.90;;;;;;4990236;28;20227;-88
2021/12/05 17:34:49;;;;;;;8.38;7.78;;;6.30;99.90;;;;;;5010825;28;20529;-89
2021/12/05 17:37:20;;;;;;;7.10;6.38;;;6.60;99.90;;;;;;5012111;28;20219;-86
2021/12/05 17:39:48;;;;;;;7.88;6.28;;;6.20;99.90;;;;;;4993396;28;20211;-86
2021/12/05 17:42:18;;;;;;;6.70;6.07;;;6.10;99.90;;;;;;4991253;28;20199;-84
2021/12/05 17:44:46;;;;;;;7.00;6.50;;;6.00;99.90;;;;;;4986160;28;20676;-85
2021/12/05 17:47:13;;;;;;;8.18;6.90;;;6.30;99.90;;;;;;5001948;28;20196;-85
2021/12/05 17:49:41;;;;;;;15.45;9.60;;;5.80;99.90;;;;;;4987134;28;20185;-88
2021/12/05 17:52:09;;;;;;;8.00;7.18;;;6.50;99.90;;;;;;4996134;28;20291;-87
2021/12/05 17:54:42;;;;;;;15.68;11.95;;;5.80;99.90;;;;;;4975565;28;20186;-87
2021/12/05 17:57:15;;;;;;;12.73;10.13;;;6.10;99.90;;;;;;4979738;28;20222;-87
2021/12/05 18:05:13;;;;;;;7.07;6.50;;;5.90;99.90;;;;;;4985782;28;20294;-87
2021/12/05 18:07:39;;;;;;;7.85;7.05;;;5.80;99.90;;;;;;4965930;28;20758;-87
2021/12/05 18:10:05;;;;;;;8.02;7.45;;;5.20;99.90;;;;;;4990207;28;20211;-87
2021/12/05 18:12:35;;;;;;;9.07;6.85;;;5.60;99.90;;;;;;4990281;28;20533;-85
2021/12/05 18:15:14;;;;;;;11.23;10.20;;;5.40;99.90;;;;;;5029646;23;20236;-91
2021/12/05 18:17:40;;;;;;;14.35;10.50;;;5.80;99.90;;;;;;5010036;28;20180;-90
2021/12/05 18:20:12;;;;;;;17.65;12.10;;;5.60;99.90;;;;;;5033201;23;20657;-87
2021/12/05 18:22:40;;;;;;;10.10;9.13;;;5.70;99.90;;;;;;5006693;28;20168;-87
2021/12/05 18:25:09;;;;;;;9.20;8.35;;;5.20;99.90;;;;;;4987183;28;20549;-88
2021/12/05 18:27:35;;;;;;;9.52;8.82;;;5.60;99.90;;;;;;4988165;28;20259;-87
2021/12/05 18:30:00;;;;;;;12.90;11.52;;;7.20;99.90;;;;;;5002087;28;20199;-86
2021/12/05 18:32:26;;;;;;;9.60;8.63;;;5.30;99.90;;;;;;5006545;28;20173;-84
2021/12/05 18:34:52;;;;;;;10.10;9.20;;;5.60;99.90;;;;;;5008203;28;20196;-87
2021/12/05 18:37:20;;;;;;;10.18;9.25;;;5.40;99.90;;;;;;4990306;28;20703;-88
2021/12/05 18:39:49;;;;;;;9.43;8.57;;;4.80;99.90;;;;;;4990134;28;20184;-88
2021/12/05 18:42:17;;;;;;;10.05;9.02;;;5.10;99.90;;;;;;5015295;28;20168;-87
2021/12/05 18:44:48;;;;;;;17.42;11.20;;;5.10;99.90;;;;;;5005574;28;20175;-87
2021/12/05 18:47:15;;;;;;;9.48;8.75;;;5.80;99.90;;;;;;5004610;28;20192;-86
2021/12/05 18:49:42;;;;;;;10.80;9.80;;;5.50;99.90;;;;;;5003025;28;20196;-87
2021/12/05 18:52:08;;;;;;;10.95;9.85;;;5.60;99.90;;;;;;4995943;28;20207;-88
2021/12/05 18:54:35;;;;;;;19.30;17.30;;;5.20;99.90;;;;;;4948975;28;20235;-87
2021/12/05 18:57:16;;;;;;;13.75;11.90;;;6.10;99.90;;;;;;5190308;23;20229;-88
2021/12/05 18:59:56;;;;;;;11.45;10.25;;;6.60;99.90;;;;;;4964201;28;20403;-88
2021/12/05 19:05:14;;;;;;;10.48;9.57;;;5.30;99.90;;;;;;4975774;28;20212;-85
2021/12/05 19:07:49;;;;;;;11.90;10.70;;;5.30;99.90;;;;;;4973243;28;20197;-88
2021/12/05 19:13:03;;;;;;;13.60;12.23;;;6.00;99.90;;;;;;4977231;28;20197;-87
2021/12/05 19:15:46;;;;;;;14.98;10.40;;;5.30;99.90;;;;;;4962249;28;20612;-87
2021/12/05 19:18:15;;;;;;;12.18;11.02;;;7.10;99.90;;;;;;4974579;28;20538;-87
2021/12/05 19:20:41;;;;;;;11.18;10.20;;;5.30;99.90;;;;;;4986987;28;20264;-87
2021/12/05 19:23:08;;;;;;;11.88;10.88;;;4.90;99.90;;;;;;4992023;28;20292;-89
2021/12/05 19:25:42;;;;;;;11.82;10.63;;;5.50;99.90;;;;;;5006073;28;20212;-89
2021/12/05 19:28:13;;;;;;;14.63;11.02;;;5.20;99.90;;;;;;5013459;28;20241;-89
2021/12/05 19:30:54;;;;;;;14.85;11.02;;;5.10;99.90;;;;;;5025843;28;20165;-90
2021/12/05 19:33:24;;;;;;;14.20;12.43;;;5.20;99.90;;;;;;4997286;28;20201;-89